Time;durP1;ratioP1;P1;durP2;ratioP2;P2;SDS_P1;SDS_P2;PMS_P1;PMS_P2;Temp;Humidity;BMP_temperature;BMP_pressure;BME280_temperature;BME280_humidity;BME280_pressure;Samples;Min_cycle;Max_cycle;Signal;HPM_P1;HPM_P2
2023/08/07 00:02:41;;;;;;;3.90;2.13;;;12.50;99.90;;;;;;5099363;28;20478;-78
2023/08/07 00:05:37;;;;;;;1.83;1.70;;;12.50;99.90;;;;;;5095116;28;20481;-78
2023/08/07 00:08:15;;;;;;;2.17;1.97;;;12.50;99.90;;;;;;5094652;28;20462;-79
2023/08/07 00:10:58;;;;;;;1.93;1.60;;;12.50;99.90;;;;;;5093752;28;20576;-79
2023/08/07 00:16:48;;;;;;;1.70;1.60;;;12.50;99.90;;;;;;5081387;28;20468;-79
2023/08/07 00:19:29;;;;;;;2.13;1.97;;;12.50;99.90;;;;;;5097148;28;20544;-79
2023/08/07 00:22:10;;;;;;;4.10;1.70;;;12.50;99.90;;;;;;5092026;28;20457;-79
2023/08/07 00:24:57;;;;;;;1.97;1.70;;;12.50;99.90;;;;;;5077472;28;21008;-80
2023/08/07 00:27:39;;;;;;;9.43;3.17;;;12.50;99.90;;;;;;5083765;28;20440;-76
2023/08/07 00:30:26;;;;;;;2.30;2.20;;;12.50;99.90;;;;;;5087135;28;20447;-78
2023/08/07 00:33:18;;;;;;;2.00;1.87;;;12.50;99.90;;;;;;5073052;28;20440;-79
2023/08/07 00:35:59;;;;;;;4.30;1.70;;;12.50;99.90;;;;;;5065035;28;20451;-79
2023/08/07 00:38:55;;;;;;;7.37;2.30;;;12.50;99.90;;;;;;5065085;28;20503;-78
2023/08/07 00:41:35;;;;;;;2.40;2.20;;;12.50;99.90;;;;;;5065442;28;20457;-77
2023/08/07 00:44:14;;;;;;;1.97;1.83;;;12.60;99.90;;;;;;5063967;28;20480;-79
2023/08/07 00:49:46;;;;;;;2.33;1.83;;;12.60;99.90;;;;;;5062399;28;20449;-77
2023/08/07 00:52:19;;;;;;;3.30;2.20;;;12.60;99.90;;;;;;5063111;28;20522;-78
2023/08/07 00:54:50;;;;;;;2.43;2.17;;;12.60;99.90;;;;;;5062900;28;20820;-79
2023/08/07 00:57:34;;;;;;;2.30;1.80;;;12.60;99.90;;;;;;5062350;28;20533;-78
2023/08/07 01:00:04;;;;;;;3.37;2.30;;;12.60;99.90;;;;;;5062457;28;20499;-78
2023/08/07 01:02:34;;;;;;;3.37;2.37;;;12.60;99.90;;;;;;5062401;28;20457;-77
2023/08/07 01:05:07;;;;;;;1.90;1.80;;;12.60;99.90;;;;;;5061796;28;20471;-77
2023/08/07 01:07:47;;;;;;;2.13;1.90;;;12.60;99.90;;;;;;5061414;28;20512;-77
2023/08/07 01:10:21;;;;;;;3.83;2.10;;;12.70;99.90;;;;;;5061383;28;20494;-80
2023/08/07 01:12:58;;;;;;;2.50;1.97;;;12.70;99.90;;;;;;5060706;28;20444;-78
2023/08/07 01:15:37;;;;;;;2.17;2.03;;;12.60;99.90;;;;;;5061069;28;20465;-79
2023/08/07 01:18:21;;;;;;;2.50;2.10;;;12.60;99.90;;;;;;5060933;28;20511;-78
2023/08/07 01:21:07;;;;;;;2.17;1.90;;;12.60;99.90;;;;;;5060478;28;20460;-78
2023/08/07 01:23:40;;;;;;;3.00;1.83;;;12.60;99.90;;;;;;5060997;28;20476;-77
2023/08/07 01:26:24;;;;;;;2.40;2.20;;;12.70;99.90;;;;;;5061598;28;20480;-78
2023/08/07 01:29:21;;;;;;;2.03;1.80;;;12.60;99.90;;;;;;5060642;28;20557;-78
2023/08/07 01:32:09;;;;;;;3.00;2.80;;;12.70;99.90;;;;;;5062096;28;20461;-77
2023/08/07 01:34:47;;;;;;;2.70;2.10;;;12.70;99.90;;;;;;5062785;28;20525;-78
2023/08/07 01:37:20;;;;;;;3.90;2.23;;;12.70;99.90;;;;;;5059355;28;20486;-77
2023/08/07 01:39:53;;;;;;;1.90;1.70;;;12.70;99.90;;;;;;5058566;28;20448;-78
2023/08/07 01:42:47;;;;;;;2.00;1.90;;;12.70;99.90;;;;;;5058438;28;21032;-78
2023/08/07 01:45:41;;;;;;;3.33;2.23;;;12.70;99.90;;;;;;5057603;28;20555;-79
2023/08/07 01:48:17;;;;;;;2.23;2.00;;;12.70;99.90;;;;;;5057164;28;20461;-76
2023/08/07 01:50:49;;;;;;;2.07;1.63;;;12.80;99.90;;;;;;5061083;28;20574;-78
2023/08/07 01:53:24;;;;;;;3.47;1.80;;;12.80;99.90;;;;;;5057551;28;20469;-79
2023/08/07 01:58:39;;;;;;;2.17;2.03;;;12.50;99.90;;;;;;5063528;28;20805;-77
2023/08/07 02:01:07;;;;;;;3.33;2.20;;;12.80;99.90;;;;;;5061901;28;20826;-78
2023/08/07 02:03:35;;;;;;;1.80;1.70;;;12.80;99.90;;;;;;5063200;28;20484;-76
2023/08/07 02:06:08;;;;;;;3.50;2.27;;;12.80;99.90;;;;;;5060603;28;20492;-78
2023/08/07 02:08:38;;;;;;;3.90;2.30;;;12.70;99.90;;;;;;5056821;28;20527;-78
2023/08/07 02:11:12;;;;;;;2.60;2.40;;;12.70;99.90;;;;;;5057557;28;20608;-78
2023/08/07 02:13:41;;;;;;;3.30;2.63;;;12.70;99.90;;;;;;5054744;28;20534;-77
2023/08/07 02:16:10;;;;;;;1.80;1.70;;;12.80;99.90;;;;;;5056824;28;20545;-78
2023/08/07 02:18:47;;;;;;;1.90;1.80;;;12.80;99.90;;;;;;5055937;28;20462;-76
2023/08/07 02:21:17;;;;;;;1.87;1.77;;;12.30;99.90;;;;;;5057662;28;20456;-78
2023/08/07 02:23:48;;;;;;;2.40;2.27;;;12.70;99.90;;;;;;5057665;28;20480;-78
2023/08/07 02:26:18;;;;;;;2.50;1.97;;;12.70;99.90;;;;;;5059417;28;20477;-78
2023/08/07 02:28:48;;;;;;;4.07;1.73;;;12.80;99.90;;;;;;5058363;28;20454;-78
2023/08/07 02:31:16;;;;;;;2.13;1.90;;;12.80;99.90;;;;;;5057896;28;20540;-79
2023/08/07 02:33:54;;;;;;;2.93;2.50;;;12.80;99.90;;;;;;5056442;28;20449;-78
2023/08/07 02:36:26;;;;;;;1.53;1.43;;;12.70;99.90;;;;;;5057230;28;20471;-78
2023/08/07 02:39:04;;;;;;;2.60;2.10;;;12.70;99.90;;;;;;5056582;28;20475;-77
2023/08/07 02:41:34;;;;;;;3.13;2.33;;;12.70;99.90;;;;;;5038918;28;20453;-77
2023/08/07 02:44:13;;;;;;;2.60;2.20;;;12.60;99.90;;;;;;5040200;28;20516;-79
2023/08/07 02:46:44;;;;;;;2.50;1.97;;;12.60;99.90;;;;;;5048578;28;20455;-79
2023/08/07 02:49:22;;;;;;;2.87;2.30;;;12.60;99.90;;;;;;5053134;28;20549;-77
2023/08/07 02:52:07;;;;;;;4.10;2.60;;;12.60;99.90;;;;;;5052981;28;20454;-77
2023/08/07 02:54:39;;;;;;;4.13;2.70;;;12.60;99.90;;;;;;5051649;28;20492;-78
2023/08/07 02:57:21;;;;;;;2.63;2.17;;;12.60;99.90;;;;;;5052234;28;20471;-76
2023/08/07 03:00:46;;;;;;;1.90;1.80;;;12.60;99.90;;;;;;5051320;28;20451;-77
2023/08/07 03:03:15;;;;;;;2.30;2.20;;;12.60;99.90;;;;;;5052343;28;20438;-78
2023/08/07 03:08:51;;;;;;;2.97;2.50;;;12.60;99.90;;;;;;5050657;28;20441;-79
2023/08/07 03:11:31;;;;;;;4.53;2.13;;;12.60;99.90;;;;;;5046231;28;20832;-78
2023/08/07 03:14:11;;;;;;;5.30;2.60;;;12.50;99.90;;;;;;5043658;28;20535;-78
2023/08/07 03:16:54;;;;;;;3.67;2.00;;;12.50;99.90;;;;;;5044687;28;20526;-79
2023/08/07 03:19:25;;;;;;;2.50;2.30;;;12.50;99.90;;;;;;5045672;28;20471;-78
2023/08/07 03:21:54;;;;;;;7.07;2.70;;;12.50;99.90;;;;;;5050824;28;20437;-78
2023/08/07 03:24:36;;;;;;;2.63;2.03;;;12.50;99.90;;;;;;5055307;28;20476;-76
2023/08/07 03:27:29;;;;;;;2.30;1.83;;;12.50;99.90;;;;;;5056578;28;20465;-77
2023/08/07 03:30:02;;;;;;;7.63;2.20;;;12.50;99.90;;;;;;5054652;28;20453;-77
2023/08/07 03:32:41;;;;;;;3.07;2.07;;;12.50;99.90;;;;;;5053771;28;20443;-75
2023/08/07 03:35:18;;;;;;;5.03;2.50;;;12.50;99.90;;;;;;5052829;28;20493;-76
2023/08/07 03:37:52;;;;;;;2.20;1.97;;;12.50;99.90;;;;;;5053768;28;20444;-79
2023/08/07 03:40:41;;;;;;;6.47;2.30;;;12.50;99.90;;;;;;5056372;28;20424;-76
2023/08/07 03:43:19;;;;;;;3.60;2.03;;;12.50;99.90;;;;;;5054641;28;20463;-78
2023/08/07 03:46:02;;;;;;;2.70;2.37;;;12.20;99.90;;;;;;5053334;28;20474;-75
2023/08/07 03:48:39;;;;;;;2.80;2.20;;;12.50;99.90;;;;;;5049865;28;20442;-79
2023/08/07 03:51:09;;;;;;;4.63;2.23;;;12.50;99.90;;;;;;5041146;28;20447;-76
2023/08/07 03:53:47;;;;;;;5.50;2.50;;;12.50;99.90;;;;;;5035177;28;20446;-76
2023/08/07 03:56:22;;;;;;;2.67;2.07;;;12.50;99.90;;;;;;5034785;28;20515;-78
2023/08/07 03:59:13;;;;;;;2.50;2.30;;;12.50;99.90;;;;;;5035983;28;20543;-78
2023/08/07 04:02:00;;;;;;;3.90;2.10;;;12.50;99.90;;;;;;5035668;28;20444;-77
2023/08/07 04:04:36;;;;;;;6.37;2.70;;;12.50;99.90;;;;;;5039350;28;20480;-77
2023/08/07 04:07:09;;;;;;;5.90;1.90;;;12.50;99.90;;;;;;5040001;28;20415;-77
2023/08/07 04:09:57;;;;;;;2.40;2.00;;;12.50;99.90;;;;;;5039206;28;20450;-78
2023/08/07 04:12:39;;;;;;;2.70;2.07;;;12.50;99.90;;;;;;5040390;28;20485;-75
2023/08/07 04:15:20;;;;;;;4.50;2.00;;;12.50;99.90;;;;;;5039275;28;20461;-77
2023/08/07 04:18:13;;;;;;;2.27;1.70;;;12.40;99.90;;;;;;5039312;28;20451;-77
2023/08/07 04:20:49;;;;;;;3.07;2.20;;;12.40;99.90;;;;;;5038679;28;20471;-79
2023/08/07 04:23:39;;;;;;;2.70;2.20;;;12.40;99.90;;;;;;5039354;28;20437;-77
2023/08/07 04:26:35;;;;;;;3.57;2.20;;;12.40;99.90;;;;;;5039024;28;20462;-77
2023/08/07 04:29:07;;;;;;;2.23;2.07;;;12.40;99.90;;;;;;5039413;28;20442;-77
2023/08/07 04:31:59;;;;;;;1.97;1.87;;;12.40;99.90;;;;;;5039983;28;20432;-77
2023/08/07 04:34:34;;;;;;;2.40;2.20;;;12.50;99.90;;;;;;5038020;28;20439;-79
2023/08/07 04:37:24;;;;;;;4.73;2.30;;;12.40;99.90;;;;;;5037460;28;20541;-79
2023/08/07 04:40:28;;;;;;;4.00;2.67;;;12.50;99.90;;;;;;5037530;28;20540;-78
2023/08/07 04:43:42;;;;;;;3.30;2.20;;;12.50;99.90;;;;;;5037128;28;20468;-80
2023/08/07 04:46:34;;;;;;;2.10;1.90;;;12.50;99.90;;;;;;5034476;28;20470;-77
2023/08/07 04:49:26;;;;;;;3.30;2.00;;;12.50;99.90;;;;;;5037790;28;20473;-79
2023/08/07 04:52:19;;;;;;;1.93;1.83;;;12.60;99.90;;;;;;5037359;28;20535;-79
2023/08/07 04:54:59;;;;;;;2.27;2.03;;;12.60;99.90;;;;;;5037432;28;20480;-77
2023/08/07 04:57:41;;;;;;;3.23;2.20;;;12.60;99.90;;;;;;5036131;28;20454;-78
2023/08/07 05:00:13;;;;;;;5.67;2.63;;;12.60;99.90;;;;;;5035285;28;20453;-78
2023/08/07 05:09:03;;;;;;;4.13;2.33;;;12.70;99.90;;;;;;4993779;28;20439;-79
2023/08/07 05:14:44;;;;;;;3.23;2.60;;;12.70;99.90;;;;;;5034205;28;20524;-77
2023/08/07 05:17:31;;;;;;;2.00;1.80;;;12.80;99.90;;;;;;5035266;28;20437;-77
2023/08/07 05:20:21;;;;;;;2.57;1.97;;;12.80;99.90;;;;;;5035643;28;20460;-77
2023/08/07 05:23:03;;;;;;;5.07;2.60;;;12.80;99.90;;;;;;5047653;28;20494;-78
2023/08/07 05:25:48;;;;;;;3.53;2.30;;;12.80;99.90;;;;;;5054685;28;20855;-79
2023/08/07 05:28:42;;;;;;;3.67;2.60;;;12.90;99.90;;;;;;5056346;28;20449;-78
2023/08/07 05:31:40;;;;;;;3.33;1.80;;;12.90;99.90;;;;;;5060266;28;20461;-77
2023/08/07 05:34:23;;;;;;;2.10;1.90;;;12.90;99.90;;;;;;5060236;28;20442;-79
2023/08/07 05:37:05;;;;;;;3.10;2.17;;;13.00;99.90;;;;;;5062363;28;20472;-77
2023/08/07 05:39:46;;;;;;;3.60;2.20;;;13.00;99.90;;;;;;5062378;28;20448;-77
2023/08/07 05:42:26;;;;;;;2.53;2.30;;;13.10;99.90;;;;;;5063902;28;20430;-78
2023/08/07 05:45:02;;;;;;;3.93;2.33;;;13.10;99.90;;;;;;5059886;28;21221;-77
2023/08/07 05:47:39;;;;;;;4.10;2.20;;;13.20;99.90;;;;;;5058007;28;21213;-78
2023/08/07 05:50:13;;;;;;;3.20;2.00;;;13.20;99.90;;;;;;5061718;28;20475;-78
2023/08/07 05:52:50;;;;;;;3.70;2.23;;;13.30;99.90;;;;;;5067703;28;20494;-77
2023/08/07 05:55:31;;;;;;;2.80;2.20;;;13.30;99.90;;;;;;5046521;28;20480;-78
2023/08/07 05:58:17;;;;;;;1.97;1.60;;;13.40;99.90;;;;;;5055486;28;20522;-78
2023/08/07 06:00:53;;;;;;;5.07;2.53;;;13.40;99.90;;;;;;5038147;28;20464;-78
2023/08/07 06:03:48;;;;;;;2.67;1.97;;;13.40;99.90;;;;;;5071735;28;20440;-78
2023/08/07 06:09:16;;;;;;;2.60;2.07;;;13.40;99.90;;;;;;5037292;28;20430;-77
2023/08/07 06:12:02;;;;;;;2.53;2.33;;;13.50;99.90;;;;;;5080501;28;20439;-77
2023/08/07 06:14:43;;;;;;;3.13;2.13;;;13.50;99.90;;;;;;5074477;28;20445;-79
2023/08/07 06:17:31;;;;;;;3.10;2.23;;;13.50;99.90;;;;;;5056195;28;20544;-78
2023/08/07 06:20:30;;;;;;;7.37;1.97;;;13.60;99.90;;;;;;5057619;28;20487;-78
2023/08/07 06:23:23;;;;;;;4.13;2.30;;;13.60;99.90;;;;;;5042409;28;20456;-78
2023/08/07 06:29:07;;;;;;;1.87;1.77;;;13.70;99.90;;;;;;5040041;28;20898;-78
2023/08/07 06:32:03;;;;;;;5.40;2.30;;;13.60;99.90;;;;;;5038712;28;20464;-79
2023/08/07 06:34:38;;;;;;;2.77;2.00;;;13.70;99.90;;;;;;5038603;28;20446;-79
2023/08/07 06:37:23;;;;;;;3.20;1.90;;;13.70;99.90;;;;;;5037516;28;20880;-77
2023/08/07 06:40:01;;;;;;;4.40;2.10;;;13.70;99.90;;;;;;5037528;28;20481;-78
2023/08/07 06:42:31;;;;;;;5.90;2.40;;;13.80;99.90;;;;;;5054557;28;20506;-78
2023/08/07 06:45:04;;;;;;;5.53;2.57;;;13.80;99.90;;;;;;5055353;28;20511;-78
2023/08/07 06:47:43;;;;;;;4.23;2.20;;;13.80;99.90;;;;;;5058959;28;20512;-77
2023/08/07 06:50:40;;;;;;;8.93;1.93;;;13.90;99.90;;;;;;5058181;28;20422;-78
2023/08/07 06:53:17;;;;;;;2.40;2.10;;;13.90;99.90;;;;;;5057481;28;20507;-77
2023/08/07 06:55:54;;;;;;;3.53;2.20;;;14.00;99.90;;;;;;5056934;28;20469;-78
2023/08/07 06:58:42;;;;;;;3.00;2.23;;;14.00;99.90;;;;;;5059303;28;20453;-77
2023/08/07 07:01:17;;;;;;;2.50;2.30;;;14.10;99.90;;;;;;5060052;28;20440;-77
2023/08/07 07:04:06;;;;;;;6.10;1.90;;;14.20;99.90;;;;;;5085694;28;20435;-78
2023/08/07 07:06:38;;;;;;;2.00;1.80;;;14.30;99.90;;;;;;5089281;28;20519;-77
2023/08/07 07:09:51;;;;;;;2.27;1.80;;;14.30;99.90;;;;;;5082833;28;20770;-78
2023/08/07 07:15:19;;;;;;;2.20;2.00;;;14.80;99.90;;;;;;5035809;28;20450;-78
2023/08/07 07:17:57;;;;;;;2.80;1.90;;;14.70;99.90;;;;;;5050334;28;20488;-77
2023/08/07 07:20:38;;;;;;;3.57;1.80;;;14.70;99.90;;;;;;5050696;28;20458;-77
2023/08/07 07:23:09;;;;;;;3.10;2.47;;;14.60;99.90;;;;;;5064459;28;20524;-76
2023/08/07 07:25:43;;;;;;;2.00;1.77;;;14.70;99.90;;;;;;5069847;28;20482;-77
2023/08/07 07:28:25;;;;;;;3.80;1.73;;;14.60;99.90;;;;;;5070259;28;20452;-77
2023/08/07 07:31:19;;;;;;;3.10;2.20;;;14.70;99.90;;;;;;5070866;28;20470;-78
2023/08/07 07:34:12;;;;;;;3.60;1.83;;;14.90;99.90;;;;;;5070279;28;20517;-79
2023/08/07 07:39:55;;;;;;;2.00;1.90;;;14.70;99.90;;;;;;5064244;28;20441;-77
2023/08/07 07:45:45;;;;;;;;;;;;;;;;;;;;;
2023/08/07 07:48:35;;;;;;;2.30;2.10;;;15.00;99.90;;;;;;5071380;28;20515;-77
2023/08/07 07:51:11;;;;;;;2.20;2.07;;;15.20;99.90;;;;;;5069598;28;20520;-78
2023/08/07 07:53:44;;;;;;;4.30;2.00;;;15.30;99.90;;;;;;5068041;28;20518;-78
2023/08/07 07:56:24;;;;;;;2.03;1.90;;;15.50;99.90;;;;;;5066795;28;20533;-78
2023/08/07 07:58:58;;;;;;;3.73;1.77;;;15.50;99.90;;;;;;5068036;28;20421;-79
2023/08/07 08:01:37;;;;;;;1.83;1.63;;;15.40;99.90;;;;;;5065437;28;20788;-78
2023/08/07 08:04:16;;;;;;;2.10;1.77;;;15.50;99.90;;;;;;5067745;28;20426;-77
2023/08/07 08:07:00;;;;;;;2.83;2.07;;;15.60;99.90;;;;;;5068694;28;20588;-81
2023/08/07 08:09:36;;;;;;;2.67;2.20;;;15.60;99.90;;;;;;5069689;28;20442;-77
2023/08/07 08:12:07;;;;;;;1.90;1.23;;;15.50;99.90;;;;;;5072337;28;20441;-79
2023/08/07 08:14:40;;;;;;;2.37;1.47;;;15.30;99.90;;;;;;5073594;28;20536;-78
2023/08/07 08:17:38;;;;;;;4.30;1.80;;;15.20;99.90;;;;;;5076448;28;20429;-78
2023/08/07 08:20:17;;;;;;;1.57;1.47;;;15.20;99.90;;;;;;5077135;28;20454;-79
2023/08/07 08:22:49;;;;;;;3.80;2.70;;;15.10;99.90;;;;;;5064333;28;20430;-78
2023/08/07 08:25:23;;;;;;;1.83;1.73;;;15.20;99.90;;;;;;5054431;28;20473;-77
2023/08/07 08:27:57;;;;;;;1.70;1.50;;;15.10;99.90;;;;;;5049848;28;20473;-81
2023/08/07 08:30:29;;;;;;;2.53;1.80;;;15.20;99.90;;;;;;5046248;28;20452;-78
2023/08/07 08:33:11;;;;;;;1.80;1.70;;;15.20;99.90;;;;;;5044884;28;20451;-78
2023/08/07 08:35:41;;;;;;;1.90;1.80;;;15.30;99.90;;;;;;5045674;28;20485;-79
2023/08/07 08:38:12;;;;;;;1.67;1.57;;;15.30;99.90;;;;;;5046012;28;20457;-79
2023/08/07 08:40:44;;;;;;;3.50;1.47;;;15.60;99.90;;;;;;5044026;28;20435;-78
2023/08/07 08:43:24;;;;;;;2.43;1.90;;;15.60;99.90;;;;;;5051491;28;20446;-79
2023/08/07 08:46:16;;;;;;;3.77;1.80;;;15.60;99.90;;;;;;5064181;28;20512;-78
2023/08/07 08:48:58;;;;;;;1.80;1.70;;;15.70;99.90;;;;;;5063955;28;20452;-77
2023/08/07 08:51:27;;;;;;;2.00;1.90;;;15.90;99.90;;;;;;5062472;28;20468;-78
2023/08/07 08:53:56;;;;;;;3.07;1.50;;;16.00;99.90;;;;;;5062295;28;20453;-78
2023/08/07 08:56:50;;;;;;;3.23;1.50;;;15.90;99.90;;;;;;5064304;28;20462;-78
2023/08/07 08:59:33;;;;;;;1.50;1.40;;;16.10;99.90;;;;;;5064741;28;20449;-79
2023/08/07 09:02:11;;;;;;;1.13;1.13;;;16.20;99.90;;;;;;5065607;28;20441;-78
2023/08/07 09:04:49;;;;;;;3.50;1.37;;;16.10;99.90;;;;;;5064738;28;20432;-79
2023/08/07 09:07:32;;;;;;;2.00;0.90;;;16.30;99.90;;;;;;5063605;28;20442;-79
2023/08/07 09:13:05;;;;;;;1.53;1.40;;;16.40;99.90;;;;;;5061621;28;20432;-79
2023/08/07 09:15:43;;;;;;;1.30;1.30;;;16.70;99.90;;;;;;5065053;28;20466;-80
2023/08/07 09:18:24;;;;;;;2.40;1.50;;;17.00;99.90;;;;;;5064087;28;20449;-79
2023/08/07 09:20:52;;;;;;;1.87;1.27;;;16.70;99.90;;;;;;5066672;28;20454;-77
2023/08/07 09:23:24;;;;;;;1.20;1.10;;;16.90;99.90;;;;;;5048696;28;20454;-78
2023/08/07 09:26:03;;;;;;;1.67;1.27;;;17.10;99.90;;;;;;5044833;28;21000;-79
2023/08/07 09:28:44;;;;;;;2.03;1.43;;;16.80;99.90;;;;;;5045923;28;20465;-78
2023/08/07 09:31:27;;;;;;;4.30;1.50;;;16.90;99.90;;;;;;5046243;28;20453;-80
2023/08/07 09:34:06;;;;;;;3.27;1.60;;;17.20;99.90;;;;;;5046403;28;20431;-78
2023/08/07 09:36:39;;;;;;;4.43;1.50;;;17.00;99.90;;;;;;5047899;28;20478;-79
2023/08/07 09:39:07;;;;;;;1.67;1.57;;;17.10;99.90;;;;;;5048452;28;20447;-76
2023/08/07 09:41:40;;;;;;;1.73;1.23;;;17.30;99.90;;;;;;5048951;28;20447;-78
2023/08/07 09:44:17;;;;;;;2.93;1.43;;;17.30;99.90;;;;;;5048663;28;20476;-78
2023/08/07 09:46:59;;;;;;;1.50;1.20;;;17.30;99.90;;;;;;5047201;28;20474;-77
2023/08/07 09:49:42;;;;;;;1.63;1.53;;;17.40;99.90;;;;;;5045693;28;20450;-79
2023/08/07 09:52:29;;;;;;;1.70;1.60;;;17.40;99.90;;;;;;5045758;28;20527;-78
2023/08/07 09:55:05;;;;;;;1.80;1.47;;;17.60;99.90;;;;;;5046293;28;20978;-77
2023/08/07 09:57:44;;;;;;;1.80;1.70;;;17.70;99.90;;;;;;5045556;28;20453;-78
2023/08/07 10:03:13;;;;;;;1.30;1.17;;;17.70;99.90;;;;;;5044674;28;20478;-79
2023/08/07 10:05:46;;;;;;;2.57;1.30;;;18.00;99.90;;;;;;5046717;28;20482;-78
2023/08/07 10:08:26;;;;;;;1.70;1.60;;;17.50;99.90;;;;;;5046939;28;20466;-77
2023/08/07 10:11:08;;;;;;;1.53;1.43;;;18.00;99.90;;;;;;5047498;28;20484;-78
2023/08/07 10:13:44;;;;;;;1.80;1.70;;;17.70;99.90;;;;;;5051247;28;20474;-80
2023/08/07 10:16:23;;;;;;;4.20;1.67;;;17.80;99.90;;;;;;5050242;28;20451;-80
2023/08/07 10:19:05;;;;;;;1.60;1.50;;;18.40;99.90;;;;;;5062208;28;20439;-78
2023/08/07 10:21:43;;;;;;;2.20;1.60;;;18.30;99.90;;;;;;5048865;28;20450;-78
2023/08/07 10:24:36;;;;;;;2.30;1.40;;;18.40;99.90;;;;;;5058373;28;20474;-80
2023/08/07 10:27:37;;;;;;;1.73;1.50;;;18.30;99.90;;;;;;5045076;28;20475;-79
2023/08/07 10:30:42;;;;;;;1.40;1.30;;;18.10;99.90;;;;;;5055681;28;20465;-79
2023/08/07 10:33:32;;;;;;;1.93;1.73;;;18.00;99.90;;;;;;5027876;28;20464;-79
2023/08/07 10:36:46;;;;;;;;;;;;;;;;;;;;;
2023/08/07 10:39:27;;;;;;;2.00;1.40;;;17.80;99.90;;;;;;5038455;28;20434;-78
2023/08/07 10:42:14;;;;;;;2.30;1.50;;;17.90;99.90;;;;;;5064237;28;20453;-75
2023/08/07 10:48:39;;;;;;;2.63;1.57;;;18.00;99.90;;;;;;5056398;28;20466;-77
2023/08/07 10:51:29;;;;;;;1.93;1.70;;;18.00;99.90;;;;;;5064294;28;20526;-80
2023/08/07 10:57:23;;;;;;;1.50;1.40;;;17.70;99.90;;;;;;5067953;28;20453;-78
2023/08/07 11:03:30;;;;;;;1.83;1.73;;;18.40;99.90;;;;;;5007909;28;20829;-79
2023/08/07 11:06:12;;;;;;;2.20;1.57;;;18.40;99.90;;;;;;5044680;28;20478;-76
2023/08/07 11:08:52;;;;;;;2.03;1.70;;;18.80;99.90;;;;;;5046061;28;20844;-77
2023/08/07 11:11:31;;;;;;;1.87;1.57;;;18.50;99.90;;;;;;5046177;28;20438;-79
2023/08/07 11:14:07;;;;;;;1.47;1.40;;;18.50;99.90;;;;;;5048341;28;20461;-78
2023/08/07 11:16:46;;;;;;;2.37;1.80;;;18.10;99.90;;;;;;5051187;28;20530;-80
2023/08/07 11:19:51;;;;;;;3.87;2.03;;;18.00;99.90;;;;;;5055433;28;20450;-79
2023/08/07 11:22:38;;;;;;;2.13;1.93;;;18.10;99.90;;;;;;5051788;28;20451;-78
2023/08/07 11:25:35;;;;;;;3.20;2.10;;;17.90;99.90;;;;;;5046464;28;20470;-79
2023/08/07 11:28:19;;;;;;;1.63;1.53;;;17.60;99.90;;;;;;5035403;28;20466;-80
2023/08/07 11:31:00;;;;;;;3.90;2.23;;;17.60;99.90;;;;;;5039182;28;20453;-77
2023/08/07 11:33:34;;;;;;;2.40;1.97;;;17.60;99.90;;;;;;5037535;28;20452;-78
2023/08/07 11:36:19;;;;;;;1.90;1.70;;;17.40;99.90;;;;;;5038549;28;20570;-79
2023/08/07 11:38:51;;;;;;;2.67;1.50;;;17.40;99.90;;;;;;5020438;28;20958;-79
2023/08/07 11:41:33;;;;;;;1.60;1.50;;;17.40;99.90;;;;;;5038416;28;20434;-79
2023/08/07 11:44:15;;;;;;;2.43;1.83;;;17.40;99.90;;;;;;5038963;28;20457;-78
2023/08/07 11:47:07;;;;;;;4.70;1.87;;;17.20;99.90;;;;;;5039412;28;20478;-78
2023/08/07 11:52:49;;;;;;;4.50;2.37;;;17.20;99.90;;;;;;5041882;28;20446;-80
2023/08/07 11:55:40;;;;;;;2.10;2.00;;;17.10;99.90;;;;;;5040809;28;20501;-80
2023/08/07 11:58:21;;;;;;;6.47;1.90;;;17.00;99.90;;;;;;5040757;28;20653;-79
2023/08/07 12:00:55;;;;;;;5.47;2.50;;;17.00;99.90;;;;;;5040331;28;20522;-79
2023/08/07 12:03:38;;;;;;;2.90;1.90;;;17.10;99.90;;;;;;5042594;28;20466;-77
2023/08/07 12:06:18;;;;;;;2.17;1.73;;;17.20;99.90;;;;;;5039126;28;20508;-78
2023/08/07 12:09:25;;;;;;;2.53;1.67;;;17.30;99.90;;;;;;5038152;28;20458;-81
2023/08/07 12:12:20;;;;;;;4.50;2.10;;;17.50;99.90;;;;;;5041405;28;20450;-79
2023/08/07 12:15:00;;;;;;;3.70;2.07;;;17.30;99.90;;;;;;5041970;28;20490;-78
2023/08/07 12:18:15;;;;;;;2.30;2.20;;;17.00;99.90;;;;;;5040303;28;20457;-79
2023/08/07 12:27:59;;;;;;;2.20;2.00;;;17.50;99.90;;;;;;4830887;29;20516;-78
2023/08/07 12:30:28;;;;;;;6.07;1.80;;;17.50;99.90;;;;;;4886672;29;20690;-79
2023/08/07 12:33:00;;;;;;;2.20;2.00;;;17.60;99.90;;;;;;4982195;28;20452;-79
2023/08/07 12:35:33;;;;;;;2.73;1.83;;;17.30;99.90;;;;;;5041261;28;20538;-80
2023/08/07 12:38:06;;;;;;;2.90;2.20;;;17.50;99.90;;;;;;5041474;28;20493;-77
2023/08/07 12:40:42;;;;;;;2.77;2.37;;;17.50;99.90;;;;;;5041672;28;20459;-78
2023/08/07 12:43:15;;;;;;;3.23;2.10;;;17.60;99.90;;;;;;5041746;28;20565;-77
2023/08/07 12:45:52;;;;;;;2.20;2.00;;;17.50;99.90;;;;;;5043021;28;20508;-78
2023/08/07 12:51:33;;;;;;;5.40;2.83;;;17.80;99.90;;;;;;5041232;28;20450;-79
2023/08/07 12:54:19;;;;;;;3.73;2.30;;;18.00;99.90;;;;;;5043652;28;20454;-79
2023/08/07 12:57:17;;;;;;;3.87;2.10;;;18.00;99.90;;;;;;5043738;28;20470;-81
2023/08/07 13:00:19;;;;;;;3.60;2.17;;;17.90;99.90;;;;;;5044478;28;20943;-78
2023/08/07 13:03:05;;;;;;;3.07;2.43;;;17.90;99.90;;;;;;5043739;28;20516;-79
2023/08/07 13:05:53;;;;;;;1.77;1.67;;;18.00;99.90;;;;;;5042507;28;20470;-79
2023/08/07 13:08:48;;;;;;;2.30;2.10;;;17.90;99.90;;;;;;5042509;28;20445;-80
2023/08/07 13:11:19;;;;;;;2.33;2.13;;;17.80;99.90;;;;;;5042043;28;20450;-78
2023/08/07 13:14:04;;;;;;;2.47;2.27;;;17.90;99.90;;;;;;5041263;28;20414;-78
2023/08/07 13:16:40;;;;;;;2.27;2.07;;;18.00;99.90;;;;;;5041424;28;20888;-80
2023/08/07 13:19:13;;;;;;;4.03;2.23;;;18.10;99.90;;;;;;5040148;28;20439;-79
2023/08/07 13:21:47;;;;;;;2.67;2.13;;;18.10;99.90;;;;;;5040853;28;20438;-76
2023/08/07 13:24:16;;;;;;;2.80;2.60;;;18.00;99.90;;;;;;5040292;28;20534;-80
2023/08/07 13:26:51;;;;;;;2.67;2.47;;;17.70;99.90;;;;;;5042508;28;20542;-80
2023/08/07 13:29:24;;;;;;;2.20;2.10;;;17.90;99.90;;;;;;5041212;28;20908;-78
2023/08/07 13:32:00;;;;;;;2.57;2.37;;;17.50;99.90;;;;;;5040169;28;20455;-78
2023/08/07 13:34:31;;;;;;;2.70;2.50;;;17.80;99.90;;;;;;5039557;28;20458;-78
2023/08/07 13:37:07;;;;;;;3.60;2.80;;;17.90;99.90;;;;;;5041038;28;20458;-76
2023/08/07 13:39:45;;;;;;;2.47;2.07;;;17.90;99.90;;;;;;5041115;28;20468;-79
2023/08/07 13:42:27;;;;;;;2.03;1.93;;;17.90;99.90;;;;;;5044226;28;20454;-76
2023/08/07 13:44:59;;;;;;;1.90;1.80;;;18.30;99.90;;;;;;5042079;28;20451;-80
2023/08/07 13:47:33;;;;;;;2.50;2.30;;;18.60;99.90;;;;;;5040282;28;20826;-78
2023/08/07 13:50:18;;;;;;;2.80;2.10;;;18.90;99.90;;;;;;5041434;28;20525;-77
2023/08/07 13:52:51;;;;;;;2.10;1.90;;;18.90;99.90;;;;;;5051125;28;20457;-80
2023/08/07 13:55:34;;;;;;;3.20;1.90;;;18.70;99.90;;;;;;5050747;28;20472;-79
2023/08/07 13:58:29;;;;;;;3.20;2.70;;;18.60;99.90;;;;;;5051052;28;20451;-78
2023/08/07 14:01:18;;;;;;;2.30;2.10;;;18.80;99.90;;;;;;5050461;28;20518;-79
2023/08/07 14:03:56;;;;;;;2.47;2.27;;;18.90;99.90;;;;;;5050872;28;20447;-79
2023/08/07 14:06:35;;;;;;;2.07;1.77;;;18.80;99.90;;;;;;5052242;28;20470;-77
2023/08/07 14:09:18;;;;;;;1.90;1.67;;;18.50;99.90;;;;;;5055620;28;20465;-75
2023/08/07 14:12:09;;;;;;;2.00;1.90;;;18.50;99.90;;;;;;5055951;28;20439;-77
2023/08/07 14:14:49;;;;;;;1.90;1.80;;;18.60;99.90;;;;;;5056807;28;20446;-78
2023/08/07 14:20:21;;;;;;;2.27;2.17;;;19.10;99.90;;;;;;5065275;28;20529;-77
2023/08/07 14:22:57;;;;;;;2.20;2.10;;;19.70;99.90;;;;;;5061760;28;20484;-78
2023/08/07 14:25:54;;;;;;;2.37;1.70;;;19.90;99.90;;;;;;5045534;28;20498;-79
2023/08/07 14:28:31;;;;;;;2.20;2.00;;;19.20;99.90;;;;;;5038946;28;20482;-77
2023/08/07 14:31:12;;;;;;;4.70;2.70;;;19.20;99.90;;;;;;5065645;28;20526;-78
2023/08/07 14:33:46;;;;;;;2.40;1.77;;;19.20;99.90;;;;;;5070401;28;20464;-78
2023/08/07 14:37:03;;;;;;;2.97;2.57;;;19.00;99.90;;;;;;5068934;28;20469;-77
2023/08/07 14:39:53;;;;;;;2.10;1.90;;;19.00;99.90;;;;;;5049833;28;20477;-80
2023/08/07 14:48:42;;;;;;;2.67;2.47;;;19.30;99.90;;;;;;5033859;28;20507;-79
2023/08/07 14:51:50;;;;;;;2.07;1.87;;;19.40;99.90;;;;;;5065174;28;20449;-79
2023/08/07 14:54:49;;;;;;;2.03;1.93;;;19.80;99.90;;;;;;5064635;28;20977;-78
2023/08/07 14:57:50;;;;;;;2.63;2.20;;;20.20;99.90;;;;;;5048373;28;20455;-79
2023/08/07 15:01:00;;;;;;;;;;;;;;;;;;;;;
2023/08/07 15:03:42;;;;;;;2.27;2.13;;;20.60;99.90;;;;;;5038223;28;20450;-78
2023/08/07 15:06:29;;;;;;;1.70;1.60;;;20.30;99.90;;;;;;5037657;28;20482;-78
2023/08/07 15:09:04;;;;;;;3.23;1.87;;;19.40;99.90;;;;;;5054176;28;20476;-78
2023/08/07 15:11:50;;;;;;;2.73;2.00;;;19.70;99.90;;;;;;5051012;28;20454;-77
2023/08/07 15:14:43;;;;;;;2.80;1.60;;;19.40;99.90;;;;;;5036848;28;20473;-77
2023/08/07 15:17:25;;;;;;;2.03;1.93;;;19.40;99.90;;;;;;5046085;28;20458;-79
2023/08/07 15:20:02;;;;;;;3.20;2.30;;;19.00;99.90;;;;;;5068386;28;20450;-79